Aeroporto :
LOGIN :

Iscrizione | Disclaimer

   EN    FR    IT 

 










Sommario :    VFR   VFR Marginale   IFR   IFR Intensivo   IFR Molto Intensivo
Visibilità : 
Base nubi : 
>= 8 km
>= 3000ft
5 / 8 km
1000 / 3000 ft
1500m / 5 km
500 / 1000 ft
800 / 1500m
200 / 500 ft
< 800m
< 200 ft
Simboli :   Temporali  Nebbia  Neve Forte  Precipitazioni Forti  Vento > 20 kt
SIGMETs :   Varie  Temporali  Ghiacco  Turbolenza  Onda orograficha  Ceneri Vulcaniche







- Altitudine del aeroporto : 600 ft
- Codice IATA : VIE


LOWW - Vienna Schwechat

ULTIMO METAR :
  • 160850Z VRB02KT CAVOK 04/M02 Q1031 NOSIG

METARs OBSOLETI :
  • 160820Z 15004KT CAVOK 03/M01 Q1032 NOSIG
  • 160750Z 16003KT CAVOK 01/M02 Q1032 NOSIG
  • 160720Z VRB01KT CAVOK 00/M02 Q1032 NOSIG
  • 160650Z VRB01KT CAVOK M01/M04 Q1032 NOSIG
  • 160620Z VRB01KT CAVOK M02/M04 Q1031 NOSIG
  • 160550Z VRB01KT CAVOK M01/M04 Q1031 NOSIG

TAF TAF LOWW
Valido dal 16 a 09 ore il 17 a 15 ore UTC


160815Z 1609/1715 VRB02KT CAVOK TX10/1614Z TNM01/1706Z
BECMG 1702/1705 2500 FZBCFG NSC
PROB30
TEMPO 1705/1708 0300 FZFG VV001
BECMG 1708/1710 CAVOK
Nessun NOTAM noto per questo aeroporto.



MetMap, La meteo Aeronautica in un colpo d'occhio ! - Copyright ORBIFLY Dicembre 2007 - Disclaimer

ORBIFLY MET'MAP TEAM :

Programmazione e sviluppo : Alexandra Zaïnal
Concezione e sviluppo : Baudouin d'Aumeries
Co-Programmazione e sviluppo : Marc-Olivier Méhu
Supporto tecnico e logistico : Manuel Goepfert
Aiuto per la traduzione : Arnaldo La Scala

Contatto : metmap@orbifly.com




FONTI E CREDITI :

   NOAA